MHTG/TGU METAR and TAF weather

Enter ICAO airport designator
Station Type Date Time Source
MHTG METAR 2020/01/22 12:00 UTC NOAA

MHTG 221200Z 36008KT 9999 SCT028 SCT250 14/10 Q1022 A3018 NOSIG


Station Type Date Time Source
MHTG Decoded METAR 2020/01/22 12:00 UTC NOAA

Tegucigalpa, Honduras (MHTG) 14-03N 087-13W 1007M
Jan 22, 2020 - 07:00 AM EST / 2020.01.22 1200 UTC
Wind: from the N (360 degrees) at 9 MPH (8 KT):0
Visibility: greater than 7 mile(s):0
Sky conditions: partly cloudy
Temperature: 57 F (14 C)
Dew Point: 50 F (10 C)
Relative Humidity: 76%
Pressure (altimeter): 30.18 in. Hg (1022 hPa)
ob: MHTG 221200Z 36008KT 9999 SCT028 SCT250 14/10 Q1022 A3018 NOSIG
cycle: 12

Station Type Date Time Source
MHTG TAF 2020/01/22 12:45 UTC NOAA

TAF MHTG 221015Z 2212/2312 36012KT 8000 FEW008 BKN024 TX24/2221Z TN14/2312Z
BECMG 2214/2216 9999 BKN026
BECMG 2300/2302 SCT026
BECMG 2309/2311 SCT024 SCT080

Example: see airport list